sensor_id;sensor_type;location;lat;lon;timestamp;pressure;altitude;pressure_sealevel;temperature;humidity
52591;BME280;38483;42.620;25.394;2023-04-22T00:02:14;96736.59;;;12.10;71.09
52591;BME280;38483;42.620;25.394;2023-04-22T00:04:43;96733.66;;;12.16;70.68
52591;BME280;38483;42.620;25.394;2023-04-22T00:07:14;96727.28;;;12.21;70.96
52591;BME280;38483;42.620;25.394;2023-04-22T00:09:41;96748.41;;;12.15;71.70
52591;BME280;38483;42.620;25.394;2023-04-22T00:12:09;96739.16;;;12.25;70.82
52591;BME280;38483;42.620;25.394;2023-04-22T00:14:39;96743.13;;;12.17;71.06
52591;BME280;38483;42.620;25.394;2023-04-22T00:17:06;96749.84;;;11.90;72.49
52591;BME280;38483;42.620;25.394;2023-04-22T00:19:33;96738.06;;;11.69;72.73
52591;BME280;38483;42.620;25.394;2023-04-22T00:22:01;96733.59;;;11.55;73.82
52591;BME280;38483;42.620;25.394;2023-04-22T00:24:28;96739.69;;;11.54;73.43
52591;BME280;38483;42.620;25.394;2023-04-22T00:26:55;96731.53;;;11.62;72.91
52591;BME280;38483;42.620;25.394;2023-04-22T00:29:24;96734.13;;;11.77;72.66
52591;BME280;38483;42.620;25.394;2023-04-22T00:31:51;96748.34;;;11.86;72.30
52591;BME280;38483;42.620;25.394;2023-04-22T00:34:18;96754.47;;;11.85;72.37
52591;BME280;38483;42.620;25.394;2023-04-22T00:36:46;96767.69;;;11.96;71.78
52591;BME280;38483;42.620;25.394;2023-04-22T00:39:14;96752.09;;;11.96;71.35
52591;BME280;38483;42.620;25.394;2023-04-22T00:41:41;96762.47;;;11.96;71.45
52591;BME280;38483;42.620;25.394;2023-04-22T00:44:09;96757.13;;;11.99;71.24
52591;BME280;38483;42.620;25.394;2023-04-22T00:46:38;96763.84;;;12.03;70.87
52591;BME280;38483;42.620;25.394;2023-04-22T00:49:06;96756.78;;;11.89;71.09
52591;BME280;38483;42.620;25.394;2023-04-22T00:51:33;96774.72;;;11.94;70.97
52591;BME280;38483;42.620;25.394;2023-04-22T00:54:01;96773.22;;;11.90;71.39
52591;BME280;38483;42.620;25.394;2023-04-22T00:56:30;96765.34;;;11.76;71.71
52591;BME280;38483;42.620;25.394;2023-04-22T00:58:57;96771.31;;;11.61;72.46
52591;BME280;38483;42.620;25.394;2023-04-22T01:01:25;96776.00;;;11.38;73.40
52591;BME280;38483;42.620;25.394;2023-04-22T01:03:53;96768.59;;;11.15;74.48
52591;BME280;38483;42.620;25.394;2023-04-22T01:06:21;96763.59;;;11.12;74.96
52591;BME280;38483;42.620;25.394;2023-04-22T01:08:49;96758.78;;;11.05;75.24
52591;BME280;38483;42.620;25.394;2023-04-22T01:11:17;96759.59;;;10.90;76.23
52591;BME280;38483;42.620;25.394;2023-04-22T01:13:45;96767.88;;;10.96;76.57
52591;BME280;38483;42.620;25.394;2023-04-22T01:16:12;96760.25;;;10.93;77.29
52591;BME280;38483;42.620;25.394;2023-04-22T01:18:39;96769.75;;;10.77;77.95
52591;BME280;38483;42.620;25.394;2023-04-22T01:21:06;96772.31;;;10.60;79.39
52591;BME280;38483;42.620;25.394;2023-04-22T01:23:33;96743.69;;;10.29;80.96
52591;BME280;38483;42.620;25.394;2023-04-22T01:26:00;96757.03;;;10.38;81.46
52591;BME280;38483;42.620;25.394;2023-04-22T01:28:28;96755.34;;;10.37;81.77
52591;BME280;38483;42.620;25.394;2023-04-22T01:30:55;96752.16;;;10.49;81.15
52591;BME280;38483;42.620;25.394;2023-04-22T01:33:22;96753.22;;;10.45;81.03
52591;BME280;38483;42.620;25.394;2023-04-22T01:35:49;96750.19;;;10.54;81.00
52591;BME280;38483;42.620;25.394;2023-04-22T01:38:16;96752.16;;;10.49;81.83
52591;BME280;38483;42.620;25.394;2023-04-22T01:40:43;96745.69;;;10.58;81.55
52591;BME280;38483;42.620;25.394;2023-04-22T01:43:11;96741.25;;;10.60;81.04
52591;BME280;38483;42.620;25.394;2023-04-22T01:45:38;96740.81;;;10.69;80.54
52591;BME280;38483;42.620;25.394;2023-04-22T01:48:05;96726.94;;;10.70;80.21
52591;BME280;38483;42.620;25.394;2023-04-22T01:50:33;96727.25;;;10.64;80.12
52591;BME280;38483;42.620;25.394;2023-04-22T01:53:00;96720.53;;;10.77;79.36
52591;BME280;38483;42.620;25.394;2023-04-22T01:55:27;96730.69;;;10.97;79.46
52591;BME280;38483;42.620;25.394;2023-04-22T01:57:55;96718.19;;;10.88;79.30
52591;BME280;38483;42.620;25.394;2023-04-22T02:00:22;96729.09;;;10.95;79.24
52591;BME280;38483;42.620;25.394;2023-04-22T02:02:49;96720.03;;;10.86;79.72
52591;BME280;38483;42.620;25.394;2023-04-22T02:05:16;96721.72;;;10.87;79.90
52591;BME280;38483;42.620;25.394;2023-04-22T02:07:45;96699.41;;;10.85;79.92
52591;BME280;38483;42.620;25.394;2023-04-22T02:10:15;96700.56;;;10.79;80.10
52591;BME280;38483;42.620;25.394;2023-04-22T02:12:43;96716.13;;;10.95;79.99
52591;BME280;38483;42.620;25.394;2023-04-22T02:15:13;96718.56;;;10.98;80.22
52591;BME280;38483;42.620;25.394;2023-04-22T02:17:40;96711.16;;;11.07;80.17
52591;BME280;38483;42.620;25.394;2023-04-22T02:20:08;96712.94;;;11.22;80.09
52591;BME280;38483;42.620;25.394;2023-04-22T02:22:37;96716.28;;;11.40;79.96
52591;BME280;38483;42.620;25.394;2023-04-22T02:25:06;96714.44;;;11.58;79.57
52591;BME280;38483;42.620;25.394;2023-04-22T02:27:33;96726.03;;;11.68;79.40
52591;BME280;38483;42.620;25.394;2023-04-22T02:30:00;96729.19;;;11.73;79.26
52591;BME280;38483;42.620;25.394;2023-04-22T02:32:29;96716.72;;;11.64;79.50
52591;BME280;38483;42.620;25.394;2023-04-22T02:34:57;96731.97;;;11.70;80.09
52591;BME280;38483;42.620;25.394;2023-04-22T02:37:24;96717.63;;;11.63;80.92
52591;BME280;38483;42.620;25.394;2023-04-22T02:39:53;96738.22;;;11.66;80.66
52591;BME280;38483;42.620;25.394;2023-04-22T02:42:19;96726.66;;;11.56;81.67
52591;BME280;38483;42.620;25.394;2023-04-22T02:44:47;96733.09;;;11.48;82.05
52591;BME280;38483;42.620;25.394;2023-04-22T02:47:15;96730.00;;;11.58;80.60
52591;BME280;38483;42.620;25.394;2023-04-22T02:49:42;96726.59;;;11.41;81.10
52591;BME280;38483;42.620;25.394;2023-04-22T02:52:09;96731.03;;;11.39;80.44
52591;BME280;38483;42.620;25.394;2023-04-22T02:54:36;96724.28;;;11.35;79.52
52591;BME280;38483;42.620;25.394;2023-04-22T02:57:03;96717.78;;;11.28;79.54
52591;BME280;38483;42.620;25.394;2023-04-22T02:59:30;96727.50;;;11.40;79.31
52591;BME280;38483;42.620;25.394;2023-04-22T03:01:59;96732.75;;;11.39;79.71
52591;BME280;38483;42.620;25.394;2023-04-22T03:04:40;96732.75;;;11.55;79.88
52591;BME280;38483;42.620;25.394;2023-04-22T03:07:07;96719.09;;;11.68;79.36
52591;BME280;38483;42.620;25.394;2023-04-22T03:09:35;96723.25;;;11.71;78.94
52591;BME280;38483;42.620;25.394;2023-04-22T03:12:02;96727.53;;;11.72;79.40
52591;BME280;38483;42.620;25.394;2023-04-22T03:14:30;96736.16;;;11.72;79.01
52591;BME280;38483;42.620;25.394;2023-04-22T03:16:58;96733.03;;;11.66;78.92
52591;BME280;38483;42.620;25.394;2023-04-22T03:19:25;96733.53;;;11.41;79.94
52591;BME280;38483;42.620;25.394;2023-04-22T03:21:52;96727.50;;;11.25;80.90
52591;BME280;38483;42.620;25.394;2023-04-22T03:24:20;96737.66;;;11.12;81.35
52591;BME280;38483;42.620;25.394;2023-04-22T03:26:50;96734.97;;;11.14;81.99
52591;BME280;38483;42.620;25.394;2023-04-22T03:29:17;96734.44;;;10.92;83.22
52591;BME280;38483;42.620;25.394;2023-04-22T03:31:44;96732.53;;;10.78;83.90
52591;BME280;38483;42.620;25.394;2023-04-22T03:34:11;96741.88;;;10.65;84.41
52591;BME280;38483;42.620;25.394;2023-04-22T03:36:40;96743.53;;;10.49;85.63
52591;BME280;38483;42.620;25.394;2023-04-22T03:39:07;96744.94;;;10.22;87.05
52591;BME280;38483;42.620;25.394;2023-04-22T03:41:34;96741.16;;;10.10;88.38
52591;BME280;38483;42.620;25.394;2023-04-22T03:44:01;96741.06;;;9.95;89.87
52591;BME280;38483;42.620;25.394;2023-04-22T03:46:30;96737.69;;;10.11;89.87
52591;BME280;38483;42.620;25.394;2023-04-22T03:49:06;96729.75;;;10.14;89.21
52591;BME280;38483;42.620;25.394;2023-04-22T03:51:34;96747.38;;;10.42;88.39
52591;BME280;38483;42.620;25.394;2023-04-22T03:54:06;96745.44;;;10.45;87.70
52591;BME280;38483;42.620;25.394;2023-04-22T03:56:37;96751.16;;;10.52;87.38
52591;BME280;38483;42.620;25.394;2023-04-22T03:59:07;96751.63;;;10.60;86.59
52591;BME280;38483;42.620;25.394;2023-04-22T04:01:35;96753.03;;;10.83;85.40
52591;BME280;38483;42.620;25.394;2023-04-22T04:04:09;96762.06;;;11.08;84.49
52591;BME280;38483;42.620;25.394;2023-04-22T04:06:51;96767.94;;;11.27;83.74
52591;BME280;38483;42.620;25.394;2023-04-22T04:09:19;96773.66;;;11.34;83.77
52591;BME280;38483;42.620;25.394;2023-04-22T04:12:02;96767.00;;;11.45;82.64
52591;BME280;38483;42.620;25.394;2023-04-22T04:14:34;96771.00;;;11.51;81.49
52591;BME280;38483;42.620;25.394;2023-04-22T04:17:03;96771.09;;;11.65;81.36
52591;BME280;38483;42.620;25.394;2023-04-22T04:19:33;96775.84;;;11.57;81.30
52591;BME280;38483;42.620;25.394;2023-04-22T04:22:01;96772.72;;;11.68;81.56
52591;BME280;38483;42.620;25.394;2023-04-22T04:24:34;96775.88;;;11.73;80.96
52591;BME280;38483;42.620;25.394;2023-04-22T04:27:09;96771.94;;;11.81;80.58
52591;BME280;38483;42.620;25.394;2023-04-22T04:29:44;96772.38;;;11.74;81.33
52591;BME280;38483;42.620;25.394;2023-04-22T04:32:15;96777.72;;;11.71;81.23
52591;BME280;38483;42.620;25.394;2023-04-22T04:34:44;96780.91;;;11.76;81.49
52591;BME280;38483;42.620;25.394;2023-04-22T04:37:13;96784.78;;;11.84;81.20
52591;BME280;38483;42.620;25.394;2023-04-22T04:39:54;96782.09;;;11.86;80.76
52591;BME280;38483;42.620;25.394;2023-04-22T04:42:24;96780.16;;;12.05;79.52
52591;BME280;38483;42.620;25.394;2023-04-22T04:44:59;96789.00;;;12.16;79.77
52591;BME280;38483;42.620;25.394;2023-04-22T04:47:31;96794.25;;;12.31;79.90
52591;BME280;38483;42.620;25.394;2023-04-22T04:50:10;96785.13;;;12.69;78.16
52591;BME280;38483;42.620;25.394;2023-04-22T04:52:38;96790.94;;;12.88;77.40
52591;BME280;38483;42.620;25.394;2023-04-22T04:55:06;96781.81;;;12.95;76.89
52591;BME280;38483;42.620;25.394;2023-04-22T04:57:33;96781.91;;;12.79;77.34
52591;BME280;38483;42.620;25.394;2023-04-22T05:00:05;96780.78;;;12.83;77.59
52591;BME280;38483;42.620;25.394;2023-04-22T05:02:33;96789.72;;;12.93;76.75
52591;BME280;38483;42.620;25.394;2023-04-22T05:05:01;96787.66;;;12.98;76.81
52591;BME280;38483;42.620;25.394;2023-04-22T05:07:29;96791.63;;;13.34;75.82
52591;BME280;38483;42.620;25.394;2023-04-22T05:09:56;96793.47;;;13.46;75.04
52591;BME280;38483;42.620;25.394;2023-04-22T05:12:24;96784.94;;;13.72;74.18
52591;BME280;38483;42.620;25.394;2023-04-22T05:14:52;96798.66;;;13.88;73.77
52591;BME280;38483;42.620;25.394;2023-04-22T05:17:20;96783.03;;;13.88;73.69
52591;BME280;38483;42.620;25.394;2023-04-22T05:19:47;96795.09;;;13.89;73.13
52591;BME280;38483;42.620;25.394;2023-04-22T05:22:15;96795.38;;;14.39;72.14
52591;BME280;38483;42.620;25.394;2023-04-22T05:24:43;96793.75;;;14.63;71.19
52591;BME280;38483;42.620;25.394;2023-04-22T05:27:11;96793.06;;;14.87;69.76
52591;BME280;38483;42.620;25.394;2023-04-22T05:29:38;96790.09;;;15.18;68.23
52591;BME280;38483;42.620;25.394;2023-04-22T05:32:07;96787.34;;;15.19;67.58
52591;BME280;38483;42.620;25.394;2023-04-22T05:34:34;96786.44;;;15.08;68.17
52591;BME280;38483;42.620;25.394;2023-04-22T05:37:02;96798.03;;;15.29;68.13
52591;BME280;38483;42.620;25.394;2023-04-22T05:39:31;96794.78;;;15.38;67.65
52591;BME280;38483;42.620;25.394;2023-04-22T05:42:01;96796.34;;;15.40;67.12
52591;BME280;38483;42.620;25.394;2023-04-22T05:44:29;96791.56;;;15.47;66.85
52591;BME280;38483;42.620;25.394;2023-04-22T05:46:58;96796.44;;;15.39;67.35
52591;BME280;38483;42.620;25.394;2023-04-22T05:49:26;96801.88;;;15.61;66.85
52591;BME280;38483;42.620;25.394;2023-04-22T05:52:10;96793.50;;;15.81;66.32
52591;BME280;38483;42.620;25.394;2023-04-22T05:55:16;96797.13;;;15.91;66.28
52591;BME280;38483;42.620;25.394;2023-04-22T05:57:46;96806.19;;;15.98;65.49
52591;BME280;38483;42.620;25.394;2023-04-22T06:00:39;96801.03;;;15.73;65.11
52591;BME280;38483;42.620;25.394;2023-04-22T06:03:23;96802.50;;;15.52;65.84
52591;BME280;38483;42.620;25.394;2023-04-22T06:05:51;96805.66;;;15.57;66.06
52591;BME280;38483;42.620;25.394;2023-04-22T06:08:19;96793.31;;;15.72;66.29
52591;BME280;38483;42.620;25.394;2023-04-22T06:10:49;96798.59;;;15.83;65.63
52591;BME280;38483;42.620;25.394;2023-04-22T06:13:17;96785.34;;;15.73;64.99
52591;BME280;38483;42.620;25.394;2023-04-22T06:15:43;96797.84;;;15.93;64.75
52591;BME280;38483;42.620;25.394;2023-04-22T06:18:10;96795.09;;;16.31;63.98
52591;BME280;38483;42.620;25.394;2023-04-22T06:20:38;96801.66;;;16.84;62.39
52591;BME280;38483;42.620;25.394;2023-04-22T06:23:05;96809.09;;;17.01;61.08
52591;BME280;38483;42.620;25.394;2023-04-22T06:25:32;96811.03;;;17.21;60.70
52591;BME280;38483;42.620;25.394;2023-04-22T06:27:59;96804.34;;;17.17;60.84
52591;BME280;38483;42.620;25.394;2023-04-22T06:30:27;96803.91;;;17.34;60.14
52591;BME280;38483;42.620;25.394;2023-04-22T06:32:54;96810.66;;;17.49;59.34
52591;BME280;38483;42.620;25.394;2023-04-22T06:35:23;96805.56;;;17.35;59.60
52591;BME280;38483;42.620;25.394;2023-04-22T06:37:55;96812.72;;;17.22;60.24
52591;BME280;38483;42.620;25.394;2023-04-22T06:40:27;96820.66;;;17.55;60.36
52591;BME280;38483;42.620;25.394;2023-04-22T06:43:14;96813.03;;;17.85;59.06
52591;BME280;38483;42.620;25.394;2023-04-22T06:46:09;96811.50;;;17.72;59.23
52591;BME280;38483;42.620;25.394;2023-04-22T06:49:11;96819.44;;;17.81;57.37
52591;BME280;38483;42.620;25.394;2023-04-22T06:52:08;96821.25;;;17.70;57.93
52591;BME280;38483;42.620;25.394;2023-04-22T06:54:40;96814.47;;;17.67;57.74
52591;BME280;38483;42.620;25.394;2023-04-22T06:57:07;96808.03;;;17.49;57.66
52591;BME280;38483;42.620;25.394;2023-04-22T06:59:34;96827.47;;;17.34;57.29
52591;BME280;38483;42.620;25.394;2023-04-22T07:02:02;96822.88;;;17.49;56.94
52591;BME280;38483;42.620;25.394;2023-04-22T07:04:33;96817.81;;;17.24;57.62
52591;BME280;38483;42.620;25.394;2023-04-22T07:07:17;96815.78;;;17.16;57.50
52591;BME280;38483;42.620;25.394;2023-04-22T07:09:47;96822.13;;;17.25;57.04
52591;BME280;38483;42.620;25.394;2023-04-22T07:12:14;96830.44;;;17.19;56.48
52591;BME280;38483;42.620;25.394;2023-04-22T07:14:43;96830.25;;;16.98;56.10
52591;BME280;38483;42.620;25.394;2023-04-22T07:17:11;96835.75;;;17.06;55.54
52591;BME280;38483;42.620;25.394;2023-04-22T07:19:38;96829.09;;;17.02;56.43
52591;BME280;38483;42.620;25.394;2023-04-22T07:22:05;96832.28;;;16.71;55.89
52591;BME280;38483;42.620;25.394;2023-04-22T07:24:35;96830.28;;;16.74;55.97
52591;BME280;38483;42.620;25.394;2023-04-22T07:27:23;96834.34;;;16.78;55.82
52591;BME280;38483;42.620;25.394;2023-04-22T07:30:43;96829.88;;;16.91;55.58
52591;BME280;38483;42.620;25.394;2023-04-22T07:33:18;96833.03;;;16.84;55.15
52591;BME280;38483;42.620;25.394;2023-04-22T07:35:45;96841.19;;;17.03;54.96
52591;BME280;38483;42.620;25.394;2023-04-22T07:38:13;96835.28;;;17.12;54.88
52591;BME280;38483;42.620;25.394;2023-04-22T07:40:40;96835.44;;;17.22;54.56
52591;BME280;38483;42.620;25.394;2023-04-22T07:43:07;96837.44;;;17.18;54.32
52591;BME280;38483;42.620;25.394;2023-04-22T07:45:34;96842.03;;;17.03;54.89
52591;BME280;38483;42.620;25.394;2023-04-22T07:48:03;96834.34;;;16.78;55.38
52591;BME280;38483;42.620;25.394;2023-04-22T07:50:30;96841.47;;;16.76;55.36
52591;BME280;38483;42.620;25.394;2023-04-22T07:52:57;96837.69;;;16.57;56.01
52591;BME280;38483;42.620;25.394;2023-04-22T07:55:24;96844.44;;;16.36;56.84
52591;BME280;38483;42.620;25.394;2023-04-22T07:57:51;96844.94;;;16.41;55.43
52591;BME280;38483;42.620;25.394;2023-04-22T08:00:18;96845.44;;;16.58;56.04
52591;BME280;38483;42.620;25.394;2023-04-22T08:02:45;96839.06;;;16.50;56.33
52591;BME280;38483;42.620;25.394;2023-04-22T08:05:13;96845.38;;;16.35;55.86
52591;BME280;38483;42.620;25.394;2023-04-22T08:07:40;96828.81;;;16.23;56.50
52591;BME280;38483;42.620;25.394;2023-04-22T08:10:08;96846.63;;;16.65;58.14
52591;BME280;38483;42.620;25.394;2023-04-22T08:12:35;96832.81;;;16.52;57.75
52591;BME280;38483;42.620;25.394;2023-04-22T08:15:03;96835.19;;;16.79;57.30
52591;BME280;38483;42.620;25.394;2023-04-22T08:17:30;96843.56;;;16.71;57.32
52591;BME280;38483;42.620;25.394;2023-04-22T08:19:57;96840.53;;;17.23;55.88
52591;BME280;38483;42.620;25.394;2023-04-22T08:22:24;96841.13;;;16.81;56.39
52591;BME280;38483;42.620;25.394;2023-04-22T08:24:53;96847.91;;;16.83;56.63
52591;BME280;38483;42.620;25.394;2023-04-22T08:27:20;96837.59;;;16.93;56.05
52591;BME280;38483;42.620;25.394;2023-04-22T08:29:47;96844.41;;;17.06;55.59
52591;BME280;38483;42.620;25.394;2023-04-22T08:32:15;96849.81;;;17.16;56.09
52591;BME280;38483;42.620;25.394;2023-04-22T08:35:02;96861.44;;;16.17;57.80
52591;BME280;38483;42.620;25.394;2023-04-22T08:38:03;96852.22;;;15.63;53.83
52591;BME280;38483;42.620;25.394;2023-04-22T08:40:30;96850.72;;;15.97;52.28
52591;BME280;38483;42.620;25.394;2023-04-22T08:42:57;96853.19;;;16.11;49.54
52591;BME280;38483;42.620;25.394;2023-04-22T08:45:24;96850.63;;;15.86;47.79
52591;BME280;38483;42.620;25.394;2023-04-22T08:47:52;96849.88;;;15.96;47.46
52591;BME280;38483;42.620;25.394;2023-04-22T08:50:20;96861.16;;;15.97;46.74
52591;BME280;38483;42.620;25.394;2023-04-22T08:52:51;96851.72;;;16.19;46.20
52591;BME280;38483;42.620;25.394;2023-04-22T08:55:18;96859.09;;;16.25;46.30
52591;BME280;38483;42.620;25.394;2023-04-22T08:57:46;96851.50;;;16.59;47.18
52591;BME280;38483;42.620;25.394;2023-04-22T09:00:14;96857.03;;;16.78;47.00
52591;BME280;38483;42.620;25.394;2023-04-22T09:02:43;96853.22;;;17.05;50.28
52591;BME280;38483;42.620;25.394;2023-04-22T09:05:12;96849.34;;;17.33;52.01
52591;BME280;38483;42.620;25.394;2023-04-22T09:07:40;96848.94;;;17.04;55.24
52591;BME280;38483;42.620;25.394;2023-04-22T09:10:08;96850.31;;;17.32;56.31
52591;BME280;38483;42.620;25.394;2023-04-22T09:12:39;96848.31;;;17.47;52.28
52591;BME280;38483;42.620;25.394;2023-04-22T09:15:07;96844.22;;;17.66;52.86
52591;BME280;38483;42.620;25.394;2023-04-22T09:17:35;96841.72;;;17.76;52.95
52591;BME280;38483;42.620;25.394;2023-04-22T09:20:06;96838.63;;;17.71;53.95
52591;BME280;38483;42.620;25.394;2023-04-22T09:25:04;96829.81;;;17.72;53.74
52591;BME280;38483;42.620;25.394;2023-04-22T09:27:34;96827.81;;;17.86;53.83
52591;BME280;38483;42.620;25.394;2023-04-22T09:30:07;96821.47;;;17.89;55.55
52591;BME280;38483;42.620;25.394;2023-04-22T09:32:34;96811.19;;;18.19;56.14
52591;BME280;38483;42.620;25.394;2023-04-22T09:35:01;96821.88;;;18.38;53.81
52591;BME280;38483;42.620;25.394;2023-04-22T09:37:29;96815.81;;;18.38;55.02
52591;BME280;38483;42.620;25.394;2023-04-22T09:40:15;96810.84;;;18.13;50.21
52591;BME280;38483;42.620;25.394;2023-04-22T09:42:49;96813.91;;;18.29;50.71
52591;BME280;38483;42.620;25.394;2023-04-22T09:45:37;96806.69;;;18.64;49.89
52591;BME280;38483;42.620;25.394;2023-04-22T09:48:13;96815.41;;;18.53;48.89
52591;BME280;38483;42.620;25.394;2023-04-22T09:50:48;96800.63;;;17.99;49.81
52591;BME280;38483;42.620;25.394;2023-04-22T09:53:18;96793.03;;;18.49;49.68
52591;BME280;38483;42.620;25.394;2023-04-22T09:55:48;96802.75;;;18.90;47.64
52591;BME280;38483;42.620;25.394;2023-04-22T09:58:38;96805.06;;;19.04;46.63
52591;BME280;38483;42.620;25.394;2023-04-22T10:01:42;96806.53;;;18.97;46.82
52591;BME280;38483;42.620;25.394;2023-04-22T10:04:10;96789.38;;;18.73;45.30
52591;BME280;38483;42.620;25.394;2023-04-22T10:06:39;96789.84;;;18.46;46.42
52591;BME280;38483;42.620;25.394;2023-04-22T10:09:08;96787.75;;;17.96;46.73
52591;BME280;38483;42.620;25.394;2023-04-22T10:11:35;96805.88;;;17.99;47.43
52591;BME280;38483;42.620;25.394;2023-04-22T10:14:03;96778.22;;;18.06;46.50
52591;BME280;38483;42.620;25.394;2023-04-22T10:16:32;96776.44;;;18.49;47.39
52591;BME280;38483;42.620;25.394;2023-04-22T10:19:02;96802.00;;;18.14;44.80
52591;BME280;38483;42.620;25.394;2023-04-22T10:21:31;96783.94;;;18.11;44.14
52591;BME280;38483;42.620;25.394;2023-04-22T10:23:58;96774.91;;;17.93;45.38
52591;BME280;38483;42.620;25.394;2023-04-22T10:26:40;96729.44;;;17.71;46.21
52591;BME280;38483;42.620;25.394;2023-04-22T10:29:12;96778.13;;;17.85;45.58
52591;BME280;38483;42.620;25.394;2023-04-22T10:31:44;96782.19;;;17.67;45.12
52591;BME280;38483;42.620;25.394;2023-04-22T10:34:13;96775.97;;;17.46;45.41
52591;BME280;38483;42.620;25.394;2023-04-22T10:37:05;96775.16;;;17.56;45.79
52591;BME280;38483;42.620;25.394;2023-04-22T10:39:32;96777.31;;;17.51;46.98
52591;BME280;38483;42.620;25.394;2023-04-22T10:44:48;96789.88;;;17.46;47.47
52591;BME280;38483;42.620;25.394;2023-04-22T10:47:35;96794.84;;;17.16;47.51
52591;BME280;38483;42.620;25.394;2023-04-22T10:50:22;96795.94;;;17.25;47.08
52591;BME280;38483;42.620;25.394;2023-04-22T10:52:58;96800.47;;;17.23;47.04
52591;BME280;38483;42.620;25.394;2023-04-22T10:55:48;96805.34;;;17.38;47.98
52591;BME280;38483;42.620;25.394;2023-04-22T10:58:20;96810.09;;;17.33;48.85
52591;BME280;38483;42.620;25.394;2023-04-22T11:00:48;96814.63;;;17.20;51.00
52591;BME280;38483;42.620;25.394;2023-04-22T11:03:26;96821.66;;;17.31;52.16
52591;BME280;38483;42.620;25.394;2023-04-22T11:06:32;96823.91;;;17.24;51.89
52591;BME280;38483;42.620;25.394;2023-04-22T11:09:38;96821.38;;;17.12;51.25
52591;BME280;38483;42.620;25.394;2023-04-22T11:15:10;96832.50;;;16.08;51.65
52591;BME280;38483;42.620;25.394;2023-04-22T11:17:40;96846.28;;;16.10;52.62
52591;BME280;38483;42.620;25.394;2023-04-22T11:20:09;96838.47;;;15.97;54.44
52591;BME280;38483;42.620;25.394;2023-04-22T11:22:38;96838.19;;;15.64;56.22
52591;BME280;38483;42.620;25.394;2023-04-22T11:25:05;96840.94;;;15.63;57.10
52591;BME280;38483;42.620;25.394;2023-04-22T11:27:33;96827.03;;;15.62;59.07
52591;BME280;38483;42.620;25.394;2023-04-22T11:30:12;96851.97;;;15.91;58.60
52591;BME280;38483;42.620;25.394;2023-04-22T11:32:46;96845.41;;;16.22;59.47
52591;BME280;38483;42.620;25.394;2023-04-22T11:35:24;96845.75;;;16.17;60.70
52591;BME280;38483;42.620;25.394;2023-04-22T11:38:04;96851.41;;;16.11;61.96
52591;BME280;38483;42.620;25.394;2023-04-22T11:40:40;96858.38;;;16.23;61.91
52591;BME280;38483;42.620;25.394;2023-04-22T11:43:11;96861.94;;;16.22;62.84
52591;BME280;38483;42.620;25.394;2023-04-22T11:45:39;96862.78;;;16.23;61.66
52591;BME280;38483;42.620;25.394;2023-04-22T11:48:08;96873.72;;;16.28;63.12
52591;BME280;38483;42.620;25.394;2023-04-22T11:50:38;96867.34;;;16.32;62.99
52591;BME280;38483;42.620;25.394;2023-04-22T11:55:45;96866.75;;;16.16;63.90
52591;BME280;38483;42.620;25.394;2023-04-22T11:58:18;96857.13;;;16.16;64.56
52591;BME280;38483;42.620;25.394;2023-04-22T12:00:48;96859.56;;;16.19;63.17
52591;BME280;38483;42.620;25.394;2023-04-22T12:03:25;96864.84;;;16.18;64.18
52591;BME280;38483;42.620;25.394;2023-04-22T12:05:57;96859.97;;;16.13;65.16
52591;BME280;38483;42.620;25.394;2023-04-22T12:08:31;96872.41;;;16.10;63.36
52591;BME280;38483;42.620;25.394;2023-04-22T12:11:02;96872.25;;;15.88;63.27
52591;BME280;38483;42.620;25.394;2023-04-22T12:13:31;96870.88;;;15.95;63.51
52591;BME280;38483;42.620;25.394;2023-04-22T12:16:01;96885.28;;;16.00;65.57
52591;BME280;38483;42.620;25.394;2023-04-22T12:18:36;96877.03;;;16.06;65.31
52591;BME280;38483;42.620;25.394;2023-04-22T12:23:44;96880.34;;;16.08;68.44
52591;BME280;38483;42.620;25.394;2023-04-22T12:26:11;96881.00;;;15.99;69.82
52591;BME280;38483;42.620;25.394;2023-04-22T12:28:40;96881.34;;;15.82;68.48
52591;BME280;38483;42.620;25.394;2023-04-22T12:31:08;96886.34;;;15.73;68.43
52591;BME280;38483;42.620;25.394;2023-04-22T12:33:36;96881.13;;;15.73;69.19
52591;BME280;38483;42.620;25.394;2023-04-22T12:36:04;96884.03;;;15.81;69.90
52591;BME280;38483;42.620;25.394;2023-04-22T12:38:32;96874.00;;;15.87;69.32
52591;BME280;38483;42.620;25.394;2023-04-22T12:41:01;96877.47;;;15.88;69.40
52591;BME280;38483;42.620;25.394;2023-04-22T12:43:28;96864.53;;;15.86;70.70
52591;BME280;38483;42.620;25.394;2023-04-22T12:45:55;96874.31;;;15.83;69.42
52591;BME280;38483;42.620;25.394;2023-04-22T12:48:22;96878.50;;;15.73;69.09
52591;BME280;38483;42.620;25.394;2023-04-22T12:50:49;96868.91;;;15.73;70.63
52591;BME280;38483;42.620;25.394;2023-04-22T12:53:16;96862.03;;;15.72;68.04
52591;BME280;38483;42.620;25.394;2023-04-22T12:55:43;96869.94;;;15.83;69.21
52591;BME280;38483;42.620;25.394;2023-04-22T12:58:11;96879.88;;;15.78;68.33
52591;BME280;38483;42.620;25.394;2023-04-22T13:00:39;96862.13;;;15.58;70.18
52591;BME280;38483;42.620;25.394;2023-04-22T13:03:06;96870.69;;;15.60;69.92
52591;BME280;38483;42.620;25.394;2023-04-22T13:05:33;96853.63;;;15.42;70.25
52591;BME280;38483;42.620;25.394;2023-04-22T13:08:00;96866.41;;;15.46;70.18
52591;BME280;38483;42.620;25.394;2023-04-22T13:10:34;96867.88;;;15.63;70.18
52591;BME280;38483;42.620;25.394;2023-04-22T13:13:01;96867.66;;;15.66;69.18
52591;BME280;38483;42.620;25.394;2023-04-22T13:15:33;96867.25;;;15.72;69.21
52591;BME280;38483;42.620;25.394;2023-04-22T13:18:00;96869.13;;;15.70;67.58
52591;BME280;38483;42.620;25.394;2023-04-22T13:20:27;96864.59;;;15.85;67.87
52591;BME280;38483;42.620;25.394;2023-04-22T13:22:54;96869.00;;;15.97;68.22